createdAt,value
2018-11-06T00:00:51.150Z,7.50
2018-11-06T00:01:58.103Z,7.54
2018-11-06T00:03:06.156Z,7.51
2018-11-06T00:04:08.914Z,7.51
2018-11-06T00:05:12.675Z,7.55
2018-11-06T00:06:15.435Z,7.58
2018-11-06T00:07:18.161Z,7.59
2018-11-06T00:08:21.135Z,7.60
2018-11-06T00:09:24.212Z,7.63
2018-11-06T00:10:26.946Z,7.62
2018-11-06T00:11:29.703Z,7.58
2018-11-06T00:12:32.838Z,7.54
2018-11-06T00:13:35.640Z,7.60
2018-11-06T00:14:38.370Z,7.58
2018-11-06T00:15:42.448Z,7.52
2018-11-06T00:16:46.409Z,7.51
2018-11-06T00:17:49.214Z,7.54
2018-11-06T00:18:54.911Z,7.51
2018-11-06T00:19:58.027Z,7.57
2018-11-06T00:21:01.848Z,7.59
2018-11-06T00:22:06.171Z,7.59
2018-11-06T00:23:09.046Z,7.54
2018-11-06T00:24:11.804Z,7.47
2018-11-06T00:25:15.999Z,7.48
2018-11-06T00:26:19.527Z,7.48
2018-11-06T00:27:22.270Z,7.49
2018-11-06T00:28:28.466Z,7.50
2018-11-06T00:29:31.190Z,7.46
2018-11-06T00:30:33.952Z,7.37
2018-11-06T00:31:36.685Z,7.39
2018-11-06T00:32:40.676Z,7.41
2018-11-06T00:33:43.453Z,7.45
2018-11-06T00:34:46.478Z,7.45
2018-11-06T00:35:49.215Z,7.45
2018-11-06T00:36:51.985Z,7.49
2018-11-06T00:37:54.794Z,7.46
2018-11-06T00:38:59.263Z,7.37
2018-11-06T00:40:02.029Z,7.40
2018-11-06T00:41:05.070Z,7.39
2018-11-06T00:42:08.019Z,7.36
2018-11-06T00:43:10.981Z,7.30
2018-11-06T00:44:13.720Z,7.24
2018-11-06T00:45:17.399Z,7.31
2018-11-06T00:46:20.141Z,7.29
2018-11-06T00:47:23.255Z,7.27
2018-11-06T00:48:26.024Z,7.27
2018-11-06T00:49:30.806Z,7.24
2018-11-06T00:50:33.581Z,7.21
2018-11-06T00:51:36.456Z,7.20
2018-11-06T00:52:39.878Z,7.15
2018-11-06T00:53:42.937Z,7.11
2018-11-06T00:54:45.735Z,7.07
2018-11-06T00:55:48.524Z,7.05
2018-11-06T00:56:51.302Z,6.96
2018-11-06T00:57:54.085Z,6.92
2018-11-06T00:58:56.900Z,6.88
2018-11-06T01:00:00.377Z,6.77
2018-11-06T01:01:03.147Z,6.76
2018-11-06T01:02:05.941Z,6.86
2018-11-06T01:03:08.949Z,6.84
2018-11-06T01:04:13.852Z,6.84
2018-11-06T01:05:17.337Z,6.86
2018-11-06T01:06:20.539Z,6.90
2018-11-06T01:07:23.403Z,6.90
2018-11-06T01:08:26.207Z,6.91
2018-11-06T01:09:29.009Z,6.91
2018-11-06T01:10:31.794Z,6.93
2018-11-06T01:11:34.587Z,6.96
2018-11-06T01:12:38.196Z,6.90
2018-11-06T01:13:41.031Z,6.91
2018-11-06T01:14:43.776Z,6.90
2018-11-06T01:15:46.542Z,6.89
2018-11-06T01:16:49.397Z,6.79
2018-11-06T01:17:52.353Z,6.73
2018-11-06T01:18:55.105Z,6.71
2018-11-06T01:20:00.155Z,6.66
2018-11-06T01:21:03.247Z,6.67
2018-11-06T01:22:06.035Z,6.74
2018-11-06T01:23:08.805Z,6.72
2018-11-06T01:24:11.631Z,6.74
2018-11-06T01:25:15.113Z,6.74
2018-11-06T01:26:17.894Z,6.75
2018-11-06T01:27:20.677Z,6.67
2018-11-06T01:28:23.818Z,6.58
2018-11-06T01:29:26.646Z,6.62
2018-11-06T01:30:29.412Z,6.73
2018-11-06T01:31:32.581Z,6.74
2018-11-06T01:32:35.327Z,6.74
2018-11-06T01:33:38.057Z,6.66
2018-11-06T01:34:40.823Z,6.66
2018-11-06T01:35:43.594Z,6.65
2018-11-06T01:36:46.330Z,6.62
2018-11-06T01:37:49.552Z,6.51
2018-11-06T01:38:52.307Z,6.40
2018-11-06T01:39:55.063Z,6.44
2018-11-06T01:40:57.901Z,6.42
2018-11-06T01:42:01.026Z,6.41
2018-11-06T01:43:03.761Z,6.49
2018-11-06T01:44:07.007Z,6.43
2018-11-06T01:45:09.870Z,6.38
2018-11-06T01:46:12.607Z,6.37
2018-11-06T01:47:15.386Z,6.31
2018-11-06T01:48:18.403Z,6.27
2018-11-06T01:49:21.456Z,6.31
2018-11-06T01:50:24.667Z,6.30
2018-11-06T01:51:27.440Z,6.31
2018-11-06T01:52:30.172Z,6.32
2018-11-06T01:53:32.968Z,6.35
2018-11-06T01:54:35.806Z,6.35
2018-11-06T01:55:40.542Z,6.36
2018-11-06T01:56:43.861Z,6.41
2018-11-06T01:57:46.956Z,6.46
2018-11-06T01:58:49.698Z,6.51
2018-11-06T01:59:52.417Z,6.54
2018-11-06T02:00:55.136Z,6.53
2018-11-06T02:01:57.943Z,6.49
2018-11-06T02:03:01.191Z,6.46
2018-11-06T02:04:03.965Z,6.44
2018-11-06T02:05:06.692Z,6.32
2018-11-06T02:06:09.433Z,6.22
2018-11-06T02:07:13.371Z,6.22
2018-11-06T02:08:16.438Z,6.28
2018-11-06T02:09:19.467Z,6.19
2018-11-06T02:10:22.271Z,6.22
2018-11-06T02:11:25.013Z,6.25
2018-11-06T02:12:27.754Z,6.28
2018-11-06T02:13:30.483Z,6.26
2018-11-06T02:14:33.206Z,6.23
2018-11-06T02:15:36.269Z,6.28
2018-11-06T02:16:39.045Z,6.16
2018-11-06T02:17:43.781Z,6.09
2018-11-06T02:18:46.582Z,6.00
2018-11-06T02:19:49.360Z,5.95
2018-11-06T02:20:52.113Z,5.91
2018-11-06T02:21:55.142Z,5.94
2018-11-06T02:22:59.925Z,5.99
2018-11-06T02:24:08.127Z,5.91
2018-11-06T02:25:11.629Z,5.93
2018-11-06T02:26:15.305Z,5.97
2018-11-06T02:27:18.269Z,6.02
2018-11-06T02:28:21.333Z,6.00
2018-11-06T02:29:24.059Z,6.05
2018-11-06T02:30:26.772Z,6.01
2018-11-06T02:31:31.138Z,5.99
2018-11-06T02:32:34.541Z,5.94
2018-11-06T02:33:37.273Z,5.88
2018-11-06T02:34:42.452Z,5.85
2018-11-06T02:37:23.002Z,5.65
2018-11-06T02:38:25.779Z,5.58
2018-11-06T02:39:30.239Z,5.53
2018-11-06T02:40:34.056Z,5.62
2018-11-06T02:41:36.825Z,5.72
2018-11-06T02:42:40.641Z,5.78
2018-11-06T02:43:43.437Z,5.82
2018-11-06T02:44:47.496Z,5.76
2018-11-06T02:45:52.142Z,5.74
2018-11-06T02:46:55.162Z,5.76
2018-11-06T02:47:58.458Z,5.79
2018-11-06T02:49:01.190Z,5.83
2018-11-06T02:50:03.937Z,5.81
2018-11-06T02:51:06.714Z,5.69
2018-11-06T02:52:09.936Z,5.70
2018-11-06T02:53:13.192Z,5.69
2018-11-06T02:54:15.962Z,5.72
2018-11-06T02:55:18.730Z,5.72
2018-11-06T02:56:21.485Z,5.75
2018-11-06T02:57:24.215Z,5.76
2018-11-06T02:58:57.583Z,5.72
2018-11-06T03:00:00.590Z,5.60
2018-11-06T03:01:05.032Z,5.57
2018-11-06T03:02:07.777Z,5.46
2018-11-06T03:03:10.496Z,5.48
2018-11-06T03:04:13.794Z,5.50
2018-11-06T03:05:17.970Z,5.52
2018-11-06T03:06:20.869Z,5.41
2018-11-06T03:07:23.699Z,5.46
2018-11-06T03:08:26.784Z,5.49
2018-11-06T03:09:29.707Z,5.51
2018-11-06T03:10:32.572Z,5.56
2018-11-06T03:11:35.513Z,5.52
2018-11-06T03:12:41.783Z,5.57
2018-11-06T03:13:44.540Z,5.60
2018-11-06T03:14:47.328Z,5.59
2018-11-06T03:15:50.043Z,5.61
2018-11-06T03:16:52.836Z,5.57
2018-11-06T03:17:55.866Z,5.49
2018-11-06T03:18:58.942Z,5.41
2018-11-06T03:20:02.005Z,5.30
2018-11-06T03:21:04.887Z,5.27
2018-11-06T03:22:07.871Z,5.32
2018-11-06T03:23:10.669Z,5.38
2018-11-06T03:24:13.425Z,5.43
2018-11-06T03:25:16.286Z,5.41
2018-11-06T03:26:19.095Z,5.41
2018-11-06T03:27:21.814Z,5.42
2018-11-06T03:28:24.576Z,5.14
2018-11-06T03:29:27.298Z,5.16
2018-11-06T03:30:30.748Z,5.19
2018-11-06T03:31:33.520Z,5.26
2018-11-06T03:32:36.258Z,5.33
2018-11-06T03:33:39.067Z,5.40
2018-11-06T03:34:41.781Z,5.39
2018-11-06T03:35:44.554Z,5.38
2018-11-06T03:36:47.591Z,5.41
2018-11-06T03:37:50.385Z,5.40
2018-11-06T03:38:53.103Z,5.35
2018-11-06T03:39:56.649Z,5.25
2018-11-06T03:40:59.384Z,5.30
2018-11-06T03:42:02.134Z,5.37
2018-11-06T03:43:05.213Z,5.41
2018-11-06T03:44:08.526Z,5.41
2018-11-06T03:45:12.506Z,5.36
2018-11-06T03:46:15.311Z,5.39
2018-11-06T03:47:18.070Z,5.30
2018-11-06T03:48:20.844Z,5.17
2018-11-06T03:49:24.454Z,5.12
2018-11-06T03:50:27.219Z,5.08
2018-11-06T03:51:30.077Z,5.09
2018-11-06T03:52:33.630Z,5.18
2018-11-06T03:53:36.390Z,5.24
2018-11-06T03:54:39.117Z,5.29
2018-11-06T03:55:42.169Z,5.32
2018-11-06T03:56:44.994Z,5.33
2018-11-06T03:57:47.749Z,5.30
2018-11-06T03:58:50.499Z,5.28
2018-11-06T03:59:53.247Z,5.30
2018-11-06T04:00:56.218Z,5.30
2018-11-06T04:01:59.605Z,5.35
2018-11-06T04:03:02.359Z,5.40
2018-11-06T04:04:05.363Z,5.39
2018-11-06T04:05:08.257Z,5.42
2018-11-06T04:06:11.021Z,5.43
2018-11-06T04:07:13.763Z,5.42
2018-11-06T04:08:16.772Z,5.38
2018-11-06T04:09:19.560Z,5.35
2018-11-06T04:10:22.326Z,5.38
2018-11-06T04:11:25.222Z,5.39
2018-11-06T04:12:27.978Z,5.42
2018-11-06T04:13:30.741Z,5.45
2018-11-06T04:14:33.774Z,5.48
2018-11-06T04:15:38.157Z,5.46
2018-11-06T04:16:42.923Z,5.44
2018-11-06T04:17:45.885Z,5.43
2018-11-06T04:18:48.633Z,5.42
2018-11-06T04:19:51.369Z,5.41
2018-11-06T04:20:54.503Z,5.29
2018-11-06T04:21:57.260Z,5.27
2018-11-06T04:23:00.160Z,5.22
2018-11-06T04:24:03.064Z,5.27
2018-11-06T04:25:05.911Z,5.27
2018-11-06T04:26:08.773Z,5.26
2018-11-06T04:27:12.234Z,5.28
2018-11-06T04:28:15.018Z,5.30
2018-11-06T04:29:17.761Z,5.35
2018-11-06T04:30:20.519Z,5.38
2018-11-06T04:31:23.327Z,5.42
2018-11-06T04:32:26.093Z,5.42
2018-11-06T04:33:29.163Z,5.38
2018-11-06T04:34:31.932Z,5.39
2018-11-06T04:35:34.898Z,5.40
2018-11-06T04:36:39.272Z,5.34
2018-11-06T04:37:42.589Z,5.29
2018-11-06T04:38:45.320Z,5.27
2018-11-06T04:39:48.763Z,5.27
2018-11-06T04:40:51.749Z,5.20
2018-11-06T04:41:55.797Z,5.24
2018-11-06T04:42:59.017Z,5.27
2018-11-06T04:44:01.795Z,5.31
2018-11-06T04:45:06.191Z,5.30
2018-11-06T04:46:09.105Z,5.32
2018-11-06T04:47:12.150Z,5.33
2018-11-06T04:48:14.916Z,5.33
2018-11-06T04:49:18.456Z,5.28
2018-11-06T04:50:21.180Z,5.27
2018-11-06T04:51:23.898Z,5.26
2018-11-06T04:52:26.681Z,5.22
2018-11-06T04:53:30.623Z,5.18
2018-11-06T04:54:33.380Z,5.06
2018-11-06T04:55:36.178Z,5.02
2018-11-06T04:56:40.942Z,4.96
2018-11-06T04:57:44.279Z,4.93
2018-11-06T04:58:47.028Z,4.94
2018-11-06T04:59:49.840Z,4.99
2018-11-06T05:00:52.611Z,5.03
2018-11-06T05:01:55.500Z,5.07
2018-11-06T05:02:59.143Z,5.03
2018-11-06T05:04:01.893Z,4.96
2018-11-06T05:05:04.732Z,4.94
2018-11-06T05:06:07.481Z,4.98
2018-11-06T05:07:10.251Z,4.97
2018-11-06T05:08:13.942Z,5.00
2018-11-06T05:09:17.531Z,4.98
2018-11-06T05:10:20.296Z,4.95
2018-11-06T05:11:23.720Z,5.00
2018-11-06T05:12:26.456Z,5.08
2018-11-06T05:13:29.194Z,5.14
2018-11-06T05:14:32.778Z,5.13
2018-11-06T05:15:37.371Z,5.07
2018-11-06T05:16:40.251Z,5.05
2018-11-06T05:17:43.320Z,5.08
2018-11-06T05:18:46.349Z,5.05
2018-11-06T05:19:49.095Z,5.07
2018-11-06T05:20:51.874Z,5.09
2018-11-06T05:21:55.600Z,5.08
2018-11-06T05:22:58.368Z,5.05
2018-11-06T05:24:01.098Z,4.97
2018-11-06T05:25:03.887Z,4.93
2018-11-06T05:26:06.683Z,4.89
2018-11-06T05:27:09.833Z,4.94
2018-11-06T05:28:12.578Z,4.95
2018-11-06T05:29:15.678Z,4.91
2018-11-06T05:30:18.648Z,4.95
2018-11-06T05:31:21.428Z,5.03
2018-11-06T05:32:24.195Z,5.09
2018-11-06T05:33:27.567Z,5.13
2018-11-06T05:34:30.703Z,5.05
2018-11-06T05:35:33.440Z,4.95
2018-11-06T05:36:36.181Z,4.98
2018-11-06T05:37:39.107Z,4.89
2018-11-06T05:38:41.878Z,4.91
2018-11-06T05:39:44.901Z,4.92
2018-11-06T05:40:47.646Z,4.97
2018-11-06T05:41:50.666Z,4.95
2018-11-06T05:42:53.419Z,4.98
2018-11-06T05:43:56.207Z,5.03
2018-11-06T05:44:59.128Z,5.09
2018-11-06T05:46:01.882Z,5.10
2018-11-06T05:47:07.742Z,5.12
2018-11-06T05:48:12.062Z,5.14
2018-11-06T05:49:15.489Z,5.11
2018-11-06T05:50:18.276Z,5.13
2018-11-06T05:51:21.035Z,5.14
2018-11-06T05:52:24.660Z,5.17
2018-11-06T05:53:27.507Z,5.11
2018-11-06T05:54:30.457Z,5.03
2018-11-06T05:55:34.979Z,5.02
2018-11-06T05:56:37.743Z,5.04
2018-11-06T05:57:40.464Z,5.03
2018-11-06T05:58:43.669Z,5.05
2018-11-06T05:59:46.405Z,5.00
2018-11-06T06:00:49.358Z,5.00
2018-11-06T06:01:52.164Z,5.01
2018-11-06T06:02:54.904Z,5.02
2018-11-06T06:03:57.632Z,4.98
2018-11-06T06:05:00.678Z,4.82
2018-11-06T06:06:04.212Z,4.78
2018-11-06T06:07:06.966Z,4.82
2018-11-06T06:08:09.839Z,4.85
2018-11-06T06:09:12.616Z,4.93
2018-11-06T06:10:17.282Z,4.90
2018-11-06T06:11:20.009Z,4.90
2018-11-06T06:12:22.959Z,4.88
2018-11-06T06:13:26.593Z,4.88
2018-11-06T06:14:29.469Z,4.94
2018-11-06T06:15:32.321Z,4.84
2018-11-06T06:16:35.752Z,4.87
2018-11-06T06:17:38.518Z,4.85
2018-11-06T06:18:41.251Z,4.82
2018-11-06T06:20:52.622Z,4.80
2018-11-06T06:21:56.249Z,4.83
2018-11-06T06:23:01.028Z,4.94
2018-11-06T06:24:03.772Z,4.98
2018-11-06T06:25:06.718Z,4.95
2018-11-06T06:26:09.895Z,4.85
2018-11-06T06:27:13.487Z,4.81
2018-11-06T06:28:16.302Z,4.84
2018-11-06T06:29:19.478Z,4.92
2018-11-06T06:30:22.236Z,4.89
2018-11-06T06:31:28.611Z,4.94
2018-11-06T06:46:06.897Z,5.67
2018-11-06T06:47:09.935Z,5.66
2018-11-06T06:48:12.698Z,5.60
2018-11-06T06:49:15.532Z,5.58
2018-11-06T06:50:19.426Z,5.63
2018-11-06T06:51:22.429Z,5.67
2018-11-06T06:52:25.203Z,5.67
2018-11-06T06:53:28.154Z,5.67
2018-11-06T06:54:31.057Z,5.61
2018-11-06T06:55:33.705Z,5.53
2018-11-06T06:56:36.730Z,5.49
2018-11-06T06:57:41.293Z,5.48
2018-11-06T06:58:45.338Z,5.50
2018-11-06T06:59:48.961Z,5.44
2018-11-06T07:00:53.704Z,5.30
2018-11-06T07:01:57.065Z,5.33
2018-11-06T07:03:01.513Z,5.38
2018-11-06T07:04:05.359Z,5.46
2018-11-06T07:05:09.447Z,5.58
2018-11-06T07:06:12.783Z,5.60
2018-11-06T07:07:16.015Z,5.59
2018-11-06T07:08:19.085Z,5.58
2018-11-06T07:09:23.100Z,5.40
2018-11-06T07:10:26.127Z,5.34
2018-11-06T07:11:30.586Z,5.41
2018-11-06T07:12:33.570Z,5.49
2018-11-06T07:13:37.455Z,5.59
2018-11-06T07:14:40.213Z,5.67
2018-11-06T07:15:43.308Z,5.68
2018-11-06T07:16:46.590Z,5.74
2018-11-06T07:17:50.003Z,5.75
2018-11-06T07:18:52.758Z,5.78
2018-11-06T07:19:55.821Z,5.76
2018-11-06T07:21:00.440Z,5.68
2018-11-06T07:22:03.794Z,5.52
2018-11-06T07:23:06.852Z,5.49
2018-11-06T07:24:09.696Z,5.63
2018-11-06T07:25:13.632Z,5.66
2018-11-06T07:26:16.685Z,5.67
2018-11-06T07:27:20.499Z,5.72
2018-11-06T07:28:23.784Z,5.79
2018-11-06T07:29:26.577Z,5.86
2018-11-06T07:30:29.298Z,5.89
2018-11-06T07:31:32.869Z,5.89
2018-11-06T07:32:35.627Z,5.91
2018-11-06T07:33:41.244Z,5.93
2018-11-06T07:34:45.463Z,5.97
2018-11-06T07:35:49.517Z,5.98
2018-11-06T07:36:52.363Z,5.97
2018-11-06T07:37:55.316Z,6.03
2018-11-06T07:38:59.966Z,6.09
2018-11-06T07:40:02.786Z,6.12
2018-11-06T07:41:06.401Z,6.12
2018-11-06T07:42:09.253Z,6.09
2018-11-06T07:43:13.473Z,6.09
2018-11-06T07:44:16.220Z,6.21
2018-11-06T07:45:21.427Z,6.30
2018-11-06T07:46:25.594Z,6.35
2018-11-06T07:47:29.207Z,6.38
2018-11-06T07:48:31.968Z,6.46
2018-11-06T07:49:34.714Z,6.52
2018-11-06T07:50:39.037Z,6.54
2018-11-06T07:51:41.805Z,6.56
2018-11-06T07:52:44.950Z,6.65
2018-11-06T07:53:51.335Z,6.73
2018-11-06T07:54:54.402Z,6.84
2018-11-06T07:55:57.260Z,6.90
2018-11-06T07:57:00.704Z,6.95
2018-11-06T07:58:03.477Z,7.06
2018-11-06T07:59:09.940Z,7.19
2018-11-06T08:00:15.325Z,7.23
2018-11-06T08:01:19.006Z,7.23
2018-11-06T08:02:21.972Z,7.11
2018-11-06T08:03:25.218Z,6.97
2018-11-06T08:04:29.964Z,6.99
2018-11-06T08:05:32.921Z,7.20
2018-11-06T08:06:36.131Z,7.35
2018-11-06T08:07:38.896Z,7.42
2018-11-06T08:08:41.739Z,7.55
2018-11-06T08:09:45.409Z,7.72
2018-11-06T08:10:48.989Z,7.68
2018-11-06T08:11:51.903Z,7.61
2018-11-06T08:12:55.955Z,7.76
2018-11-06T08:13:59.160Z,8.03
2018-11-06T08:15:02.213Z,8.48
2018-11-06T08:16:05.014Z,8.75
2018-11-06T08:17:08.109Z,9.03
2018-11-06T08:18:10.900Z,9.49
2018-11-06T08:19:14.029Z,9.80
2018-11-06T08:20:16.901Z,9.91
2018-11-06T08:21:19.692Z,10.04
2018-11-06T08:22:22.483Z,10.20
2018-11-06T08:23:25.476Z,10.29
2018-11-06T08:24:33.465Z,10.48
2018-11-06T08:25:41.772Z,10.65
2018-11-06T08:26:45.443Z,10.64
2018-11-06T08:27:48.830Z,10.72
2018-11-06T08:28:52.073Z,10.83
2018-11-06T08:29:55.619Z,10.95
2018-11-06T08:31:00.917Z,10.91
2018-11-06T08:32:04.605Z,10.90
2018-11-06T08:33:13.893Z,10.85
2018-11-06T08:34:28.543Z,11.06
2018-11-06T08:40:01.848Z,11.51
2018-11-06T08:41:06.299Z,11.84
2018-11-06T08:43:25.465Z,12.12
2018-11-06T08:44:30.630Z,12.22
2018-11-06T08:46:51.292Z,12.72
2018-11-06T08:47:55.356Z,12.80
2018-11-06T08:48:58.261Z,12.88
2018-11-06T08:50:01.076Z,13.03
2018-11-06T08:51:03.919Z,12.98
2018-11-06T08:52:07.311Z,12.89
2018-11-06T08:54:35.887Z,12.45
2018-11-06T08:55:43.916Z,12.42
2018-11-06T08:56:54.828Z,12.15
2018-11-06T08:58:14.355Z,11.95
2018-11-06T08:59:26.766Z,11.91
2018-11-06T09:00:29.529Z,11.68
2018-11-06T09:01:35.724Z,11.34
2018-11-06T09:02:38.726Z,11.27
2018-11-06T09:03:41.811Z,11.19
2018-11-06T09:04:45.338Z,11.37
2018-11-06T09:05:48.138Z,11.73
2018-11-06T09:06:51.843Z,12.00
2018-11-06T09:07:54.820Z,12.13
2018-11-06T09:08:59.164Z,12.50
2018-11-06T09:10:02.011Z,12.70
2018-11-06T09:11:05.692Z,12.73
2018-11-06T09:12:08.683Z,12.45
2018-11-06T09:13:11.507Z,12.04
2018-11-06T09:14:14.290Z,11.66
2018-11-06T09:15:17.798Z,11.48
2018-11-06T09:16:21.023Z,11.51
2018-11-06T09:17:27.439Z,11.52
2018-11-06T09:18:30.459Z,11.42
2018-11-06T09:19:33.456Z,10.95
2018-11-06T09:20:36.338Z,11.09
2018-11-06T09:21:39.698Z,11.08
2018-11-06T09:22:43.312Z,11.38
2018-11-06T09:23:47.966Z,11.28
2018-11-06T09:24:51.115Z,11.19
2018-11-06T09:25:53.902Z,11.06
2018-11-06T09:26:56.690Z,10.93
2018-11-06T09:28:02.229Z,10.73
2018-11-06T09:29:05.443Z,10.73
2018-11-06T09:30:09.278Z,10.77
2018-11-06T09:31:13.084Z,10.85
2018-11-06T09:32:16.323Z,10.94
2018-11-06T09:33:20.291Z,10.98
2018-11-06T09:34:23.269Z,11.06
2018-11-06T09:35:26.322Z,11.10
2018-11-06T09:36:30.737Z,10.96
2018-11-06T09:37:33.560Z,10.95
2018-11-06T09:38:36.936Z,10.92
2018-11-06T09:39:40.045Z,10.84
2018-11-06T09:40:43.733Z,10.76
2018-11-06T09:41:47.697Z,10.78
2018-11-06T09:42:53.130Z,10.76
2018-11-06T09:43:56.025Z,10.60
2018-11-06T09:44:59.112Z,10.77
2018-11-06T09:46:03.295Z,11.00
2018-11-06T09:47:06.965Z,10.88
2018-11-06T09:48:18.170Z,11.08
2018-11-06T09:49:21.689Z,11.14
2018-11-06T09:50:25.988Z,11.05
2018-11-06T09:51:28.959Z,11.15
2018-11-06T09:52:40.884Z,11.12
2018-11-06T09:53:52.970Z,11.16
2018-11-06T09:55:01.054Z,11.28
2018-11-06T09:56:04.481Z,11.41
2018-11-06T09:57:10.275Z,11.62
2018-11-06T09:58:13.833Z,11.60
2018-11-06T09:59:18.333Z,11.51
2018-11-06T10:00:23.665Z,11.56
2018-11-06T10:01:29.203Z,11.67
2018-11-06T10:02:41.576Z,11.74
2018-11-06T10:03:45.486Z,11.74
2018-11-06T10:04:53.586Z,11.63
2018-11-06T10:06:01.212Z,11.74
2018-11-06T10:07:07.593Z,11.48
2018-11-06T10:08:11.548Z,11.35
2018-11-06T10:09:18.074Z,11.15
2018-11-06T10:10:22.987Z,11.15
2018-11-06T10:11:27.448Z,11.14
2018-11-06T10:12:30.710Z,11.15
2018-11-06T10:13:34.861Z,11.00
2018-11-06T10:14:44.659Z,10.93
2018-11-06T10:15:49.364Z,10.82
2018-11-06T10:16:52.328Z,10.86
2018-11-06T10:17:57.227Z,10.87
2018-11-06T10:19:00.338Z,10.86
2018-11-06T10:20:03.625Z,10.90
2018-11-06T10:21:07.064Z,11.01
2018-11-06T10:22:09.913Z,11.02
2018-11-06T10:23:12.770Z,10.93
2018-11-06T10:24:15.859Z,10.85
2018-11-06T10:25:18.660Z,10.81
2018-11-06T10:26:24.344Z,11.17
2018-11-06T10:27:27.120Z,11.60
2018-11-06T10:28:34.553Z,11.88
2018-11-06T10:29:37.317Z,12.05
2018-11-06T10:30:40.742Z,11.87
2018-11-06T10:31:44.087Z,11.63
2018-11-06T10:32:48.444Z,11.56
2018-11-06T10:33:52.412Z,11.57
2018-11-06T10:34:55.379Z,11.45
2018-11-06T10:36:00.929Z,11.52
2018-11-06T10:37:04.104Z,11.71
2018-11-06T10:38:07.487Z,11.79
2018-11-06T10:39:13.754Z,11.91
2018-11-06T10:40:23.657Z,11.96
2018-11-06T10:41:26.755Z,11.89
2018-11-06T10:42:31.710Z,12.18
2018-11-06T10:43:34.710Z,12.44
2018-11-06T10:44:39.428Z,12.63
2018-11-06T10:45:45.128Z,12.62
2018-11-06T10:46:48.495Z,12.44
2018-11-06T10:47:54.679Z,12.59
2018-11-06T10:48:59.326Z,12.61
2018-11-06T10:50:02.224Z,12.44
2018-11-06T10:51:05.396Z,12.49
2018-11-06T10:52:08.146Z,12.68
2018-11-06T10:53:11.683Z,12.86
2018-11-06T10:54:14.652Z,13.04
2018-11-06T10:55:21.192Z,13.06
2018-11-06T10:56:24.344Z,13.08
2018-11-06T10:57:28.270Z,13.14
2018-11-06T10:58:32.566Z,13.12
2018-11-06T10:59:35.383Z,13.14
2018-11-06T11:00:43.009Z,13.15
2018-11-06T11:01:50.769Z,13.21
2018-11-06T11:02:58.412Z,13.36
2018-11-06T11:04:06.473Z,13.43
2018-11-06T11:05:09.397Z,13.50
2018-11-06T11:06:12.324Z,13.56
2018-11-06T11:07:15.742Z,13.69
2018-11-06T11:08:18.885Z,13.81
2018-11-06T11:09:21.758Z,13.80
2018-11-06T11:10:25.598Z,13.75
2018-11-06T11:11:28.663Z,13.79
2018-11-06T11:12:31.499Z,13.91
2018-11-06T11:13:35.383Z,13.85
2018-11-06T11:14:40.213Z,13.82
2018-11-06T11:15:44.483Z,13.70
2018-11-06T11:16:47.813Z,13.75
2018-11-06T11:17:51.758Z,13.88
2018-11-06T11:18:54.562Z,13.74
2018-11-06T11:20:03.763Z,13.79
2018-11-06T11:21:06.550Z,13.77
2018-11-06T11:22:09.363Z,13.80
2018-11-06T11:23:14.293Z,13.89
2018-11-06T11:24:18.626Z,13.89
2018-11-06T11:25:23.862Z,13.98
2018-11-06T11:26:26.745Z,13.96
2018-11-06T11:27:30.563Z,13.94
2018-11-06T11:28:33.678Z,13.77
2018-11-06T11:29:37.132Z,13.73
2018-11-06T11:42:54.422Z,14.57
2018-11-06T11:43:58.612Z,14.58
2018-11-06T11:45:03.547Z,14.68
2018-11-06T11:46:06.361Z,14.82
2018-11-06T11:47:13.534Z,14.95
2018-11-06T11:48:20.532Z,14.91
2018-11-06T11:49:23.874Z,15.06
2018-11-06T11:50:27.443Z,15.29
2018-11-06T11:51:31.655Z,15.54
2018-11-06T11:52:36.725Z,15.67
2018-11-06T11:53:40.742Z,15.74
2018-11-06T11:54:44.389Z,15.78
2018-11-06T11:55:49.099Z,15.83
2018-11-06T11:56:52.925Z,15.90
2018-11-06T11:57:56.935Z,15.97
2018-11-06T11:59:00.483Z,15.98
2018-11-06T12:00:03.438Z,15.96
2018-11-06T12:01:07.174Z,16.04
2018-11-06T12:02:11.152Z,16.17
2018-11-06T12:03:19.176Z,16.27
2018-11-06T12:04:22.234Z,16.36
2018-11-06T12:05:26.343Z,16.36
2018-11-06T12:06:29.834Z,16.53
2018-11-06T12:07:33.045Z,16.75
2018-11-06T12:08:36.721Z,16.78
2018-11-06T12:09:40.625Z,17.08
2018-11-06T12:10:43.418Z,17.21
2018-11-06T12:11:46.251Z,17.25
2018-11-06T12:12:49.304Z,17.20
2018-11-06T12:13:52.533Z,17.04
2018-11-06T12:14:55.310Z,16.95
2018-11-06T12:15:59.078Z,17.06
2018-11-06T12:17:04.728Z,17.09
2018-11-06T12:18:08.505Z,17.17
2018-11-06T12:19:11.474Z,17.15
2018-11-06T12:20:16.476Z,17.08
2018-11-06T12:21:19.861Z,17.19
2018-11-06T12:22:24.217Z,17.29
2018-11-06T12:23:27.017Z,17.51
2018-11-06T12:24:30.533Z,17.68
2018-11-06T12:25:37.757Z,17.90
2018-11-06T12:26:40.677Z,17.90
2018-11-06T12:27:44.829Z,17.83
2018-11-06T12:28:48.582Z,17.54
2018-11-06T12:29:51.395Z,17.40
2018-11-06T12:30:55.326Z,17.47
2018-11-06T12:31:58.220Z,17.74
2018-11-06T12:33:01.626Z,17.98
2018-11-06T12:34:04.560Z,17.85
2018-11-06T12:35:08.472Z,17.65
2018-11-06T12:36:12.036Z,17.54
2018-11-06T12:37:15.783Z,17.59
2018-11-06T12:38:19.194Z,17.75
2018-11-06T12:39:25.319Z,17.53
2018-11-06T12:40:28.337Z,17.37
2018-11-06T12:41:34.409Z,17.37
2018-11-06T12:42:38.004Z,17.43
2018-11-06T12:43:41.639Z,17.39
2018-11-06T12:44:44.603Z,17.34
2018-11-06T12:45:49.104Z,17.28
2018-11-06T12:46:52.012Z,17.41
2018-11-06T12:47:54.763Z,17.46
2018-11-06T12:48:57.777Z,17.50
2018-11-06T12:50:02.273Z,17.47
2018-11-06T12:51:06.500Z,17.50
2018-11-06T12:52:10.564Z,17.44
2018-11-06T12:53:14.561Z,17.54
2018-11-06T12:54:17.952Z,17.59
2018-11-06T12:55:21.613Z,17.56
2018-11-06T12:56:28.006Z,17.62
2018-11-06T12:57:32.209Z,17.58
2018-11-06T12:58:37.092Z,17.56
2018-11-06T12:59:42.863Z,17.44
2018-11-06T13:00:46.521Z,17.36
2018-11-06T13:01:52.008Z,17.28
2018-11-06T13:02:55.754Z,17.37
2018-11-06T13:03:59.852Z,17.34
2018-11-06T13:05:02.822Z,17.28
2018-11-06T13:06:06.398Z,17.16
2018-11-06T13:07:10.009Z,17.24
2018-11-06T13:08:15.483Z,17.36
2018-11-06T13:10:29.171Z,17.46
2018-11-06T13:11:34.219Z,17.01
2018-11-06T13:12:37.312Z,17.05
2018-11-06T13:13:42.318Z,17.29
2018-11-06T13:14:46.788Z,17.27
2018-11-06T13:15:52.730Z,17.34
2018-11-06T13:16:56.637Z,17.36
2018-11-06T13:17:59.624Z,17.38
2018-11-06T13:19:04.830Z,17.38
2018-11-06T13:20:09.171Z,17.39
2018-11-06T13:21:12.967Z,17.37
2018-11-06T13:22:16.971Z,17.24
2018-11-06T13:23:20.155Z,17.19
2018-11-06T13:24:24.063Z,16.97
2018-11-06T13:25:26.856Z,16.77
2018-11-06T13:26:30.595Z,16.95
2018-11-06T13:27:34.718Z,16.96
2018-11-06T13:28:37.751Z,17.04
2018-11-06T13:29:44.642Z,17.09
2018-11-06T13:30:48.091Z,17.12
2018-11-06T13:31:51.602Z,17.15
2018-11-06T13:32:54.380Z,17.02
2018-11-06T13:34:01.993Z,17.15
2018-11-06T13:35:36.468Z,17.14
2018-11-06T13:36:42.623Z,17.24
2018-11-06T13:37:51.482Z,17.20
2018-11-06T13:38:54.528Z,17.09
2018-11-06T13:39:58.644Z,17.15
2018-11-06T13:41:04.031Z,17.25
2018-11-06T13:42:07.559Z,17.40
2018-11-06T13:43:12.453Z,17.34
2018-11-06T13:44:30.526Z,17.32
2018-11-06T13:45:33.746Z,17.25
2018-11-06T13:46:38.921Z,17.30
2018-11-06T13:47:44.514Z,17.34
2018-11-06T13:48:49.122Z,17.38
2018-11-06T13:49:53.225Z,17.43
2018-11-06T13:51:00.833Z,17.33
2018-11-06T13:52:04.637Z,17.37
2018-11-06T13:53:07.535Z,17.39
2018-11-06T13:54:10.813Z,17.35
2018-11-06T13:55:15.331Z,17.40
2018-11-06T13:56:19.670Z,17.52
2018-11-06T13:57:23.326Z,17.47
2018-11-06T13:58:26.114Z,17.54
2018-11-06T13:59:29.079Z,17.50
2018-11-06T14:00:34.906Z,17.56
2018-11-06T14:01:38.241Z,17.73
2018-11-06T14:02:40.990Z,17.78
2018-11-06T14:03:44.663Z,17.87
2018-11-06T14:04:49.234Z,17.90
2018-11-06T14:05:53.111Z,17.93
2018-11-06T14:06:57.430Z,17.95
2018-11-06T14:08:00.906Z,17.87
2018-11-06T14:09:05.460Z,17.72
2018-11-06T14:10:10.413Z,17.63
2018-11-06T14:11:13.864Z,17.59
2018-11-06T14:12:21.567Z,17.50
2018-11-06T14:13:25.688Z,17.38
2018-11-06T14:14:30.715Z,17.27
2018-11-06T14:15:34.542Z,17.25
2018-11-06T14:17:49.690Z,17.20
2018-11-06T14:18:53.671Z,17.16
2018-11-06T14:19:57.014Z,17.18
2018-11-06T14:21:03.411Z,17.22
2018-11-06T14:22:14.643Z,17.29
2018-11-06T14:23:22.265Z,17.34
2018-11-06T14:24:27.624Z,17.36
2018-11-06T14:25:31.601Z,17.37
2018-11-06T14:26:43.682Z,17.35
2018-11-06T14:27:51.960Z,17.34
2018-11-06T14:28:59.507Z,17.34
2018-11-06T14:30:04.714Z,17.32
2018-11-06T14:31:11.055Z,17.34
2018-11-06T14:32:16.944Z,17.25
2018-11-06T14:33:20.785Z,17.26
2018-11-06T14:34:24.798Z,17.24
2018-11-06T14:35:29.275Z,17.19
2018-11-06T14:36:33.781Z,17.17
2018-11-06T14:37:37.024Z,17.18